Terminal Aerodrome Forecast
Issued by NWS

Home | Current Version | Previous Version | Text Only | Print | Product List | Glossary On
Versions: 1 2 3 4 5 6 7 8 9 10 11 12 13 14 15 16 17
000
FTUS43 KDLH 211500 AAD
TAFBRD
TAF AMD
KBRD 211559Z 2116/2212 13011G18KT P6SM SKC
     FM211800 14012G20KT P6SM SKC
     FM220000 15010KT P6SM SKC=

USA.gov is the U.S. government's official web portal to all federal, state and local government web resources and services.